Time;durP1;ratioP1;P1;durP2;ratioP2;P2;SDS_P1;SDS_P2;PMS_P1;PMS_P2;Temp;Humidity;BMP_temperature;BMP_pressure;BME280_temperature;BME280_humidity;BME280_pressure;Samples;Min_cycle;Max_cycle;Signal;HPM_P1;HPM_P2
2024/03/28 00:02:18;;;;;;;2.67;1.47;;;7.20;73.20;;;9.05;53.98;95040.66;5028020;28;20519;-38
2024/03/28 00:04:45;;;;;;;2.10;1.50;;;7.20;73.50;;;9.05;54.07;95037.16;5029119;28;20050;-38
2024/03/28 00:07:12;;;;;;;1.77;1.50;;;7.10;73.80;;;9.03;54.09;95024.16;5028863;28;20515;-38
2024/03/28 00:09:39;;;;;;;1.90;1.50;;;7.10;74.40;;;9.04;54.21;95024.94;5032295;28;20434;-38
2024/03/28 00:12:06;;;;;;;4.27;1.70;;;7.00;74.50;;;9.03;54.44;95026.78;5031766;28;20046;-38
2024/03/28 00:14:33;;;;;;;3.27;1.80;;;7.00;74.50;;;9.01;54.35;95042.09;5032366;28;20093;-38
2024/03/28 00:17:02;;;;;;;3.03;2.37;;;7.00;74.80;;;9.00;54.41;95042.34;5032203;28;20049;-38
2024/03/28 00:19:28;;;;;;;2.10;1.57;;;7.00;74.30;;;8.93;54.49;95052.16;4999623;28;20444;-38
2024/03/28 00:21:55;;;;;;;3.03;1.80;;;7.00;74.50;;;8.90;54.20;95042.81;5031823;28;20378;-38
2024/03/28 00:24:22;;;;;;;1.83;1.60;;;6.90;74.60;;;8.88;54.61;95050.16;5031700;28;20049;-38
2024/03/28 00:26:48;;;;;;;3.90;2.00;;;6.90;74.90;;;8.84;54.44;95041.81;5032085;28;20057;-37
2024/03/28 00:29:15;;;;;;;3.67;2.10;;;6.90;74.70;;;8.81;54.34;95028.97;5032032;28;20048;-38
2024/03/28 00:31:42;;;;;;;6.33;2.73;;;6.90;74.90;;;8.80;54.39;95037.13;5032021;28;20053;-38
2024/03/28 00:34:08;;;;;;;4.50;2.70;;;6.80;74.80;;;8.75;54.64;95037.78;5031917;28;20068;-38
2024/03/28 00:36:35;;;;;;;2.90;2.13;;;6.90;74.80;;;8.72;54.53;95043.50;5031867;28;20528;-38
2024/03/28 00:39:02;;;;;;;3.77;2.13;;;6.80;74.90;;;8.70;54.67;95050.06;5031466;28;20042;-38
2024/03/28 00:41:29;;;;;;;4.27;2.20;;;6.80;74.80;;;8.62;54.68;95036.00;5031328;28;20040;-38
2024/03/28 00:43:56;;;;;;;2.37;2.00;;;6.70;74.90;;;8.60;54.65;95046.03;5031358;28;20049;-38
2024/03/28 00:46:22;;;;;;;2.53;2.20;;;6.70;74.80;;;8.58;54.57;95039.31;5031861;28;20049;-37
2024/03/28 00:48:49;;;;;;;3.97;2.20;;;6.70;75.00;;;8.54;54.46;95024.84;5031052;28;20052;-38
2024/03/28 00:51:16;;;;;;;5.47;1.80;;;6.70;74.80;;;8.49;54.54;95020.16;5031192;28;20048;-38
2024/03/28 00:53:42;;;;;;;3.67;2.20;;;6.60;74.20;;;8.45;54.79;95026.94;5031447;28;20121;-38
2024/03/28 00:56:09;;;;;;;3.17;2.07;;;6.60;74.40;;;8.40;54.68;95022.22;5031295;28;20041;-37
2024/03/28 00:58:36;;;;;;;2.73;2.03;;;6.60;74.20;;;8.37;54.69;95027.13;5031571;28;20073;-38
2024/03/28 01:01:03;;;;;;;3.30;2.43;;;6.60;74.20;;;8.33;54.82;95025.94;5031460;28;20485;-38
2024/03/28 01:03:30;;;;;;;2.60;2.10;;;6.50;74.50;;;8.29;54.75;95021.06;5031132;28;20037;-38
2024/03/28 01:05:58;;;;;;;2.80;2.27;;;6.50;74.50;;;8.26;54.85;95024.13;5030962;28;20208;-37
2024/03/28 01:08:26;;;;;;;2.93;2.00;;;6.40;74.80;;;8.25;54.73;95025.16;5014781;28;20671;-38
2024/03/28 01:10:54;;;;;;;2.80;2.00;;;6.40;74.80;;;8.24;54.73;95018.22;5031373;28;20053;-38
2024/03/28 01:13:20;;;;;;;2.70;2.10;;;6.40;74.70;;;8.24;54.71;95014.78;5022871;28;20045;-37
2024/03/28 01:15:47;;;;;;;5.60;3.40;;;6.40;74.80;;;8.18;54.80;95011.13;5031178;28;20044;-37
2024/03/28 01:18:14;;;;;;;2.70;2.17;;;6.40;74.90;;;8.18;54.97;95007.66;5030752;28;20052;-38
2024/03/28 01:20:40;;;;;;;3.90;2.47;;;6.40;75.00;;;8.16;54.75;95004.41;5031272;28;20049;-37
2024/03/28 01:23:07;;;;;;;3.20;2.40;;;6.40;75.10;;;8.15;54.89;95006.25;5030511;28;20045;-37
2024/03/28 01:25:34;;;;;;;3.53;2.27;;;6.30;75.10;;;8.14;54.84;95006.44;5030741;28;20053;-37
2024/03/28 01:28:01;;;;;;;3.93;2.53;;;6.30;74.80;;;8.11;54.90;94999.75;5030241;28;20064;-37
2024/03/28 01:30:27;;;;;;;2.83;2.13;;;6.30;75.00;;;8.08;54.97;95003.63;5014522;28;20053;-37
2024/03/28 01:32:54;;;;;;;3.50;2.50;;;6.30;75.00;;;8.06;55.01;94996.91;5030612;28;20041;-37
2024/03/28 01:35:20;;;;;;;3.67;2.77;;;6.30;75.10;;;8.05;55.19;94995.28;5030616;28;20052;-38
2024/03/28 01:37:48;;;;;;;4.10;3.70;;;6.30;74.80;;;8.00;55.12;94987.13;5030664;28;20045;-38
2024/03/28 01:40:15;;;;;;;2.33;2.03;;;6.40;74.20;;;7.99;55.17;94988.19;5014287;28;20042;-37
2024/03/28 01:42:42;;;;;;;4.27;2.43;;;6.30;74.60;;;7.99;55.30;94978.38;5030242;28;20049;-37
2024/03/28 01:45:09;;;;;;;2.67;2.00;;;6.20;74.80;;;7.98;55.08;94975.94;5030875;28;20054;-36
2024/03/28 01:47:36;;;;;;;2.93;2.17;;;6.20;74.80;;;7.97;55.06;94982.25;5028208;28;20041;-37
2024/03/28 01:50:04;;;;;;;3.40;2.73;;;6.20;74.70;;;7.95;55.16;94974.53;5029972;28;20102;-37
2024/03/28 01:52:31;;;;;;;3.47;1.97;;;6.20;74.30;;;7.92;55.27;94972.28;5030079;28;20072;-37
2024/03/28 01:54:58;;;;;;;4.50;2.37;;;6.20;74.20;;;7.92;54.92;94980.25;5030288;28;20048;-37
2024/03/28 01:57:25;;;;;;;3.03;2.27;;;6.20;75.00;;;7.91;55.17;94980.44;5030385;28;20041;-37
2024/03/28 01:59:53;;;;;;;2.93;2.20;;;6.10;74.60;;;7.87;55.08;94978.22;5030381;28;20068;-37
2024/03/28 02:02:22;;;;;;;5.43;2.47;;;6.10;74.70;;;7.86;55.27;94971.28;5013481;28;20057;-37
2024/03/28 02:04:49;;;;;;;2.60;1.90;;;6.10;74.60;;;7.86;55.08;94968.63;5013896;28;20064;-37
2024/03/28 02:07:15;;;;;;;4.10;3.37;;;6.10;74.80;;;7.85;55.02;94974.16;5013790;28;20068;-37
2024/03/28 02:09:42;;;;;;;3.23;2.07;;;6.10;74.50;;;7.81;55.21;94976.41;5030283;28;20056;-37
2024/03/28 02:12:09;;;;;;;4.13;2.70;;;6.10;74.10;;;7.78;55.08;94971.53;5013450;28;20041;-37
2024/03/28 02:14:35;;;;;;;2.67;2.30;;;6.10;74.10;;;7.74;54.94;94970.31;5013427;28;20042;-37
2024/03/28 02:17:05;;;;;;;3.00;2.33;;;6.10;74.30;;;7.73;54.98;94973.97;5013501;28;20045;-37
2024/03/28 02:19:36;;;;;;;4.80;3.10;;;6.10;73.90;;;7.72;55.23;94974.22;5029221;28;20060;-37
2024/03/28 02:22:03;;;;;;;2.40;2.00;;;6.10;73.90;;;7.67;55.05;94975.63;5029494;28;20041;-37
2024/03/28 02:24:30;;;;;;;2.83;2.17;;;6.00;73.60;;;7.66;55.14;94967.91;5013372;28;20049;-37
2024/03/28 02:26:57;;;;;;;3.83;2.50;;;6.00;73.70;;;7.61;55.08;94963.22;5013583;28;20507;-37
2024/03/28 02:29:24;;;;;;;3.43;2.47;;;6.00;73.40;;;7.61;54.77;94976.47;5029713;28;20378;-37
2024/03/28 02:31:51;;;;;;;5.10;3.20;;;6.00;73.20;;;7.62;54.93;94969.34;4995956;28;20065;-37
2024/03/28 02:34:18;;;;;;;3.47;2.50;;;6.00;73.40;;;7.61;54.80;94967.72;5013298;28;20060;-37
2024/03/28 02:36:44;;;;;;;3.00;2.23;;;6.00;73.30;;;7.62;55.17;94964.06;5013251;28;20049;-38
2024/03/28 02:39:11;;;;;;;2.93;2.10;;;6.00;73.00;;;7.62;54.97;94954.28;5029669;28;20046;-38
2024/03/28 02:41:38;;;;;;;3.57;2.57;;;6.00;72.80;;;7.61;54.87;94957.13;5029311;28;20052;-38
2024/03/28 02:44:04;;;;;;;3.87;2.60;;;6.00;72.60;;;7.58;54.91;94952.22;5029332;28;20048;-38
2024/03/28 02:46:31;;;;;;;3.83;2.60;;;6.00;72.70;;;7.59;54.83;94952.03;5013228;28;20462;-38
2024/03/28 02:48:58;;;;;;;3.93;2.93;;;6.00;72.80;;;7.55;55.14;94947.38;5029582;28;20531;-37
2024/03/28 02:51:25;;;;;;;5.27;2.67;;;6.00;73.00;;;7.53;55.27;94952.88;5029076;28;20037;-38
2024/03/28 02:53:51;;;;;;;3.20;2.43;;;6.00;73.00;;;7.53;55.13;94952.06;5028862;28;20065;-38
2024/03/28 02:56:18;;;;;;;3.87;2.80;;;6.00;72.80;;;7.53;54.97;94950.22;5029436;28;20037;-38
2024/03/28 02:58:44;;;;;;;3.17;2.33;;;6.00;72.30;;;7.54;54.75;94958.97;5029323;28;20527;-38
2024/03/28 03:01:11;;;;;;;3.40;2.27;;;6.00;72.20;;;7.51;54.54;94962.03;5029364;28;20531;-38
2024/03/28 03:03:38;;;;;;;2.83;2.00;;;5.90;72.00;;;7.50;54.48;94961.22;5029483;28;20048;-37
2024/03/28 03:06:06;;;;;;;3.00;2.20;;;6.00;71.50;;;7.50;54.76;94963.84;5029353;28;20045;-37
2024/03/28 03:08:32;;;;;;;2.80;2.00;;;6.00;71.40;;;7.51;54.40;94957.56;5029205;28;20041;-37
2024/03/28 03:10:59;;;;;;;3.83;2.27;;;5.90;71.50;;;7.52;54.50;94956.53;5029507;28;20424;-37
2024/03/28 03:13:25;;;;;;;3.33;2.40;;;5.90;70.30;;;7.52;54.21;94951.22;5012166;28;20064;-37
2024/03/28 03:15:55;;;;;;;5.77;2.57;;;5.90;70.80;;;7.55;54.45;94961.41;5029492;28;20041;-37
2024/03/28 03:18:26;;;;;;;2.50;1.73;;;6.00;70.20;;;7.54;54.11;94959.81;5029290;28;20512;-37
2024/03/28 03:21:00;;;;;;;3.20;2.17;;;5.90;70.40;;;7.53;54.07;94958.16;5029459;28;20037;-37
2024/03/28 03:23:35;;;;;;;3.87;2.40;;;5.90;70.70;;;7.48;54.22;94958.78;5028665;28;20033;-37
2024/03/28 03:26:11;;;;;;;3.73;2.50;;;5.90;70.30;;;7.45;53.79;94953.91;5029422;28;20555;-37
2024/03/28 03:36:56;;;;;;;2.37;2.03;;;5.90;68.20;;;7.32;53.19;94951.28;5029697;28;20419;-37
2024/03/28 03:39:23;;;;;;;6.00;2.40;;;5.90;68.40;;;7.33;53.52;94941.50;5029499;28;20052;-37
2024/03/28 03:41:50;;;;;;;2.43;2.13;;;5.80;67.90;;;7.35;53.44;94942.09;5029053;28;20054;-37
2024/03/28 03:44:16;;;;;;;2.93;2.00;;;5.80;68.30;;;7.33;53.30;94942.34;5032759;28;20045;-37
2024/03/28 03:46:43;;;;;;;4.20;3.00;;;5.80;68.80;;;7.34;53.28;94940.50;5033332;28;20432;-37
2024/03/28 03:49:10;;;;;;;3.80;2.63;;;5.80;68.80;;;7.35;53.46;94937.66;5033553;28;20064;-37
2024/03/28 03:51:37;;;;;;;3.63;2.50;;;5.80;68.80;;;7.35;53.50;94939.47;5032993;28;20045;-37
2024/03/28 03:54:04;;;;;;;5.03;2.87;;;5.90;69.10;;;7.34;53.59;94951.06;5032714;28;20045;-37
2024/03/28 03:56:31;;;;;;;3.17;2.27;;;5.80;68.60;;;7.35;53.58;94960.63;5033225;28;20041;-38
2024/03/28 03:58:58;;;;;;;4.13;2.70;;;5.70;69.30;;;7.32;53.05;94951.28;5033265;28;20420;-37
2024/03/28 04:01:25;;;;;;;3.53;2.57;;;5.70;69.10;;;7.26;53.14;94950.28;5032551;28;20044;-37
2024/03/28 04:03:53;;;;;;;4.10;2.50;;;5.70;69.00;;;7.28;53.68;94950.88;5033063;28;20052;-37
2024/03/28 04:06:19;;;;;;;5.70;2.60;;;5.80;69.20;;;7.32;53.67;94951.28;5033065;28;20052;-37
2024/03/28 04:08:46;;;;;;;4.20;2.60;;;5.80;69.10;;;7.33;53.35;94937.03;5016372;28;20052;-37
2024/03/28 04:11:13;;;;;;;3.53;2.50;;;5.70;69.40;;;7.32;53.34;94932.75;5032263;28;20045;-37
2024/03/28 04:13:40;;;;;;;3.23;2.40;;;5.70;69.40;;;7.29;53.40;94925.25;5032745;28;20420;-37
2024/03/28 04:16:06;;;;;;;3.17;2.43;;;5.70;69.10;;;7.27;52.95;94914.88;5032806;28;20044;-36
2024/03/28 04:18:34;;;;;;;4.57;3.63;;;5.70;69.00;;;7.25;53.51;94908.13;5032764;28;20037;-37
2024/03/28 04:21:01;;;;;;;4.83;3.00;;;5.70;69.30;;;7.26;53.24;94904.47;5032813;28;20044;-37
2024/03/28 04:23:27;;;;;;;3.27;2.60;;;5.70;69.20;;;7.24;53.09;94888.81;5032308;28;20497;-37
2024/03/28 04:25:59;;;;;;;4.17;2.60;;;5.70;69.20;;;7.24;53.11;94888.81;5015928;28;20049;-37
2024/03/28 04:28:26;;;;;;;3.77;3.00;;;5.70;69.00;;;7.24;53.08;94888.81;5032727;28;20046;-37
2024/03/28 04:30:52;;;;;;;3.80;2.47;;;5.70;69.10;;;7.22;53.21;94877.63;5032400;28;20064;-37
2024/03/28 04:33:19;;;;;;;4.27;2.83;;;5.70;69.00;;;7.24;53.47;94870.28;5031953;28;20101;-37
2024/03/28 04:35:46;;;;;;;4.57;2.63;;;5.60;69.30;;;7.29;53.34;94877.59;5049181;28;20037;-37
2024/03/28 04:38:14;;;;;;;3.73;2.87;;;5.60;69.40;;;7.30;53.06;94874.72;5032355;28;20033;-37
2024/03/28 04:40:41;;;;;;;4.93;3.07;;;5.60;69.80;;;7.29;53.20;94882.91;5032535;28;20046;-37
2024/03/28 04:43:09;;;;;;;4.77;3.20;;;5.60;69.50;;;7.24;53.00;94882.69;5032005;28;20037;-37
2024/03/28 04:45:36;;;;;;;4.93;2.90;;;5.60;69.50;;;7.19;52.57;94872.75;5015898;28;20285;-37
2024/03/28 04:48:03;;;;;;;3.53;2.63;;;5.50;70.00;;;7.15;52.95;94876.81;5029365;28;20448;-37
2024/03/28 04:50:30;;;;;;;4.17;3.17;;;5.50;69.50;;;7.12;52.83;94881.72;5031507;28;20057;-37
2024/03/28 04:52:56;;;;;;;4.00;2.83;;;5.50;69.90;;;7.10;53.39;94872.16;5031705;28;20045;-37
2024/03/28 04:55:23;;;;;;;6.40;3.00;;;5.50;70.10;;;7.13;53.25;94875.41;5032081;28;20651;-37
2024/03/28 04:57:50;;;;;;;4.73;2.83;;;5.50;69.80;;;7.10;53.06;94869.50;5032310;28;20416;-37
2024/03/28 05:00:16;;;;;;;4.10;2.90;;;5.50;70.00;;;7.12;53.05;94866.66;5031926;28;20412;-36
2024/03/28 05:02:43;;;;;;;3.83;2.80;;;5.50;69.90;;;7.08;53.21;94870.75;5031675;28;20037;-37
2024/03/28 05:05:11;;;;;;;6.57;3.33;;;5.50;70.00;;;7.05;53.13;94871.13;5032147;28;20048;-37
2024/03/28 05:07:38;;;;;;;5.23;3.70;;;5.50;70.20;;;7.06;53.18;94870.94;5015007;28;20042;-37
2024/03/28 05:10:05;;;;;;;5.30;3.50;;;5.50;70.50;;;7.00;53.74;94868.28;5031488;28;20038;-37
2024/03/28 05:12:33;;;;;;;4.77;3.40;;;5.50;71.10;;;6.98;53.88;94881.75;5031509;28;20052;-37
2024/03/28 05:15:01;;;;;;;4.40;3.00;;;5.40;70.60;;;7.00;53.60;94869.13;5031879;28;20053;-36
2024/03/28 05:17:28;;;;;;;5.23;3.47;;;5.40;70.70;;;7.01;53.43;94876.03;5031169;28;20061;-36
2024/03/28 05:19:54;;;;;;;7.03;4.10;;;5.40;70.80;;;6.98;53.84;94889.69;5031519;28;20398;-37
2024/03/28 05:22:21;;;;;;;4.63;3.50;;;5.30;71.10;;;6.97;53.70;94872.16;5031385;28;20516;-37
2024/03/28 05:24:48;;;;;;;5.73;3.67;;;5.30;71.30;;;6.96;54.04;94883.78;5031532;28;20048;-37
2024/03/28 05:27:14;;;;;;;6.03;4.60;;;5.30;71.30;;;6.95;53.66;94886.63;5031681;28;20045;-37
2024/03/28 05:29:42;;;;;;;6.70;4.73;;;5.30;71.70;;;6.90;53.87;94884.59;5031549;28;20048;-37
2024/03/28 05:32:09;;;;;;;6.47;3.93;;;5.30;72.20;;;6.87;53.96;94882.38;5031197;28;20472;-37
2024/03/28 05:34:35;;;;;;;6.40;4.63;;;5.30;72.30;;;6.90;54.21;94893.34;5031320;28;20049;-37
2024/03/28 05:37:02;;;;;;;9.00;3.97;;;5.30;72.10;;;6.89;54.42;94897.00;5031456;28;20041;-37
2024/03/28 05:39:29;;;;;;;7.87;4.50;;;5.30;72.20;;;6.90;54.22;94900.44;5031079;28;20041;-37
2024/03/28 05:41:56;;;;;;;6.77;4.10;;;5.30;72.10;;;6.90;54.17;94890.72;5030894;28;20029;-37
2024/03/28 05:44:23;;;;;;;6.60;4.10;;;5.30;72.10;;;6.94;54.65;94904.34;5030924;28;20049;-37
2024/03/28 05:46:50;;;;;;;5.93;4.17;;;5.40;72.00;;;7.00;54.39;94902.69;5031442;28;20045;-37
2024/03/28 05:49:16;;;;;;;5.73;3.80;;;5.40;72.20;;;7.03;54.67;94876.63;5030958;28;20412;-37
2024/03/28 05:51:43;;;;;;;5.90;4.80;;;5.50;72.10;;;7.08;54.52;94882.13;5030282;28;20049;-37
2024/03/28 05:54:10;;;;;;;4.53;3.40;;;5.40;71.80;;;7.16;54.62;94894.31;5030178;28;20053;-37
2024/03/28 05:56:36;;;;;;;5.60;4.40;;;5.50;71.80;;;7.18;54.27;94881.69;5031206;28;20041;-37
2024/03/28 05:59:03;;;;;;;5.40;4.20;;;5.50;71.60;;;7.25;54.12;94879.03;5014593;28;20496;-37
2024/03/28 06:01:30;;;;;;;6.90;4.93;;;5.60;71.80;;;7.30;54.03;94884.50;5030267;28;20071;-37
2024/03/28 06:03:58;;;;;;;7.80;4.30;;;5.70;71.60;;;7.37;54.16;94882.66;5030653;28;20037;-37
2024/03/28 06:06:24;;;;;;;6.27;4.27;;;5.70;71.80;;;7.48;54.36;94894.44;5030040;28;20049;-37
2024/03/28 06:08:51;;;;;;;6.47;4.20;;;5.80;71.40;;;7.58;54.24;94897.47;5030973;28;20046;-37
2024/03/28 06:11:18;;;;;;;5.60;4.60;;;6.00;71.60;;;7.61;54.44;94897.03;5030519;28;20038;-37
2024/03/28 06:13:44;;;;;;;6.07;3.97;;;5.90;71.70;;;7.70;54.04;94892.31;5030624;28;20034;-37
2024/03/28 06:16:11;;;;;;;5.37;3.77;;;6.10;71.70;;;7.78;54.13;94899.22;5030610;28;20068;-37
2024/03/28 06:18:37;;;;;;;5.17;4.03;;;6.20;71.10;;;7.86;54.01;94898.97;5030474;28;20041;-37
2024/03/28 06:21:05;;;;;;;8.33;4.43;;;6.30;71.10;;;7.91;54.13;94893.88;5030482;28;20420;-37
2024/03/28 06:23:32;;;;;;;5.63;4.00;;;6.40;70.60;;;7.98;53.86;94896.47;4997597;28;20045;-37
2024/03/28 06:26:03;;;;;;;6.33;5.00;;;6.40;70.30;;;8.03;53.79;94901.94;5030321;28;20536;-37
2024/03/28 06:28:31;;;;;;;5.70;3.80;;;6.50;70.40;;;8.09;53.85;94899.25;5030202;28;20052;-37
2024/03/28 06:30:59;;;;;;;6.37;3.80;;;6.50;70.50;;;8.13;53.75;94904.94;5014207;28;20041;-37
2024/03/28 06:33:26;;;;;;;5.80;3.73;;;6.60;70.00;;;8.16;53.78;94907.19;5029828;28;20412;-37
2024/03/28 06:35:53;;;;;;;5.13;3.90;;;6.60;69.70;;;8.13;53.46;94904.13;5029787;28;20029;-37
2024/03/28 06:38:19;;;;;;;5.70;3.80;;;6.60;69.20;;;8.10;53.73;94908.00;5029837;28;20033;-37
2024/03/28 06:40:47;;;;;;;6.87;4.17;;;6.60;69.70;;;8.13;53.64;94912.88;5029867;28;20096;-37
2024/03/28 06:43:14;;;;;;;6.57;4.17;;;6.60;69.80;;;8.17;53.80;94919.38;5029781;28;20038;-37
2024/03/28 06:45:42;;;;;;;7.07;4.43;;;6.60;69.60;;;8.17;53.61;94927.34;5030148;28;20041;-36
2024/03/28 06:48:09;;;;;;;5.30;3.70;;;6.70;69.50;;;8.14;53.39;94927.75;5030333;28;20048;-36
2024/03/28 06:50:36;;;;;;;5.80;4.20;;;6.60;68.90;;;8.09;53.40;94930.25;5029892;28;20065;-36
2024/03/28 06:53:02;;;;;;;6.87;4.43;;;6.70;69.20;;;8.08;53.48;94941.84;5029734;28;20037;-37
2024/03/28 06:55:29;;;;;;;5.20;3.53;;;6.70;69.10;;;8.06;53.78;94947.38;5029227;28;20036;-38
2024/03/28 06:57:56;;;;;;;6.87;5.27;;;6.70;69.30;;;8.05;53.82;94943.09;5030267;28;20041;-37
2024/03/28 07:00:23;;;;;;;5.70;4.57;;;6.70;69.40;;;8.05;54.31;94956.34;5030281;28;20038;-37
2024/03/28 07:02:49;;;;;;;5.37;3.83;;;6.70;70.70;;;8.09;54.18;94946.13;5029402;28;20045;-37
2024/03/28 07:05:16;;;;;;;5.97;3.93;;;6.70;71.20;;;8.11;54.43;94951.22;5030162;28;20047;-37
2024/03/28 07:07:44;;;;;;;5.70;3.70;;;6.70;71.70;;;8.12;54.34;94950.19;5029971;28;20049;-37
2024/03/28 07:10:10;;;;;;;4.77;3.53;;;6.70;72.20;;;8.13;54.50;94968.53;5029936;28;20510;-37
2024/03/28 07:12:38;;;;;;;5.90;4.27;;;6.70;72.60;;;8.13;54.79;94959.78;5029424;28;20493;-36
2024/03/28 07:15:05;;;;;;;5.00;3.63;;;6.70;73.50;;;8.15;55.27;94957.72;4996799;28;20064;-38
2024/03/28 07:17:32;;;;;;;6.47;3.60;;;6.70;74.60;;;8.19;55.24;94958.94;5031398;28;20430;-37
2024/03/28 07:19:58;;;;;;;6.27;4.00;;;6.70;75.00;;;8.24;55.78;94937.91;5033567;28;20060;-37
2024/03/28 07:22:25;;;;;;;5.13;3.60;;;6.70;76.10;;;8.31;55.75;94941.31;5033613;28;20419;-37
2024/03/28 07:24:52;;;;;;;5.00;3.43;;;6.70;77.10;;;8.39;55.70;94948.22;5032784;28;20041;-37
2024/03/28 07:27:18;;;;;;;6.60;3.97;;;6.70;77.70;;;8.45;55.66;94952.69;5000139;28;20057;-37
2024/03/28 07:29:45;;;;;;;4.93;3.40;;;6.70;78.10;;;8.47;55.93;94955.94;5033019;28;20663;-37
2024/03/28 07:32:12;;;;;;;6.23;4.10;;;6.70;78.50;;;8.47;56.04;94974.50;5033115;28;20046;-37
2024/03/28 07:34:38;;;;;;;4.83;3.10;;;6.70;77.80;;;8.47;56.15;94993.88;5033014;28;20639;-37
2024/03/28 07:37:05;;;;;;;5.17;3.53;;;6.70;78.10;;;8.46;56.18;94996.75;5033070;28;20044;-37
2024/03/28 07:39:33;;;;;;;4.17;3.20;;;6.70;77.50;;;8.44;56.23;94982.91;5032997;28;20047;-37
2024/03/28 07:41:59;;;;;;;5.87;3.90;;;6.70;77.90;;;8.48;56.24;94984.91;5016537;28;20412;-37
2024/03/28 07:44:26;;;;;;;5.47;3.70;;;6.80;77.60;;;8.50;56.13;94970.63;5033664;28;20513;-37
2024/03/28 07:46:53;;;;;;;6.83;4.47;;;6.90;77.30;;;8.55;56.36;94968.97;5033382;28;20041;-37
2024/03/28 07:49:19;;;;;;;4.53;3.00;;;6.90;77.30;;;8.61;56.21;94968.09;5030597;28;20042;-37
2024/03/28 07:51:46;;;;;;;4.47;3.17;;;7.00;77.20;;;8.67;56.24;94969.09;5031914;28;20049;-38
2024/03/28 07:54:13;;;;;;;8.20;3.57;;;7.10;77.40;;;8.75;56.06;94986.59;5033292;28;20041;-37
2024/03/28 07:56:39;;;;;;;4.57;3.27;;;7.20;77.00;;;8.77;55.95;94998.59;5033169;28;20046;-37
2024/03/28 07:59:07;;;;;;;6.20;3.30;;;7.20;77.20;;;8.82;56.40;95005.91;5033354;28;20504;-37
2024/03/28 08:01:35;;;;;;;4.33;2.90;;;7.20;77.00;;;8.86;56.08;95007.94;5032518;28;20052;-37
2024/03/28 08:04:02;;;;;;;4.67;3.40;;;7.30;76.90;;;8.92;56.31;95008.91;5016494;28;20377;-37
2024/03/28 08:06:28;;;;;;;4.77;2.30;;;7.30;76.80;;;8.92;56.21;95008.91;5033019;28;20053;-37
2024/03/28 08:08:55;;;;;;;5.93;3.17;;;7.30;75.70;;;8.89;56.04;95027.91;5016417;28;20458;-37
2024/03/28 08:11:22;;;;;;;3.93;2.17;;;7.30;75.00;;;8.87;56.01;95045.88;5032416;28;20401;-37
2024/03/28 08:13:49;;;;;;;4.50;2.73;;;7.30;74.30;;;8.82;55.53;95027.97;5033123;28;20045;-37
2024/03/28 08:16:16;;;;;;;3.77;2.60;;;7.40;74.00;;;8.84;55.84;95030.38;5016527;28;20072;-37
2024/03/28 08:18:42;;;;;;;4.37;2.70;;;7.40;73.60;;;8.78;55.69;95018.81;5032607;28;20037;-37
2024/03/28 08:21:09;;;;;;;4.93;3.10;;;7.40;73.80;;;8.79;55.99;95017.75;5016401;28;20038;-37
2024/03/28 08:23:36;;;;;;;3.87;2.97;;;7.40;73.80;;;8.82;56.14;95038.56;5032234;28;20408;-37
2024/03/28 08:26:05;;;;;;;4.37;2.57;;;7.50;73.70;;;8.86;55.78;95031.00;5032913;28;20045;-37
2024/03/28 08:28:33;;;;;;;6.57;3.27;;;7.50;74.00;;;8.90;55.77;95048.13;5031955;28;20500;-37
2024/03/28 08:31:00;;;;;;;3.50;2.10;;;7.60;74.00;;;8.89;55.95;95062.38;5032531;28;20515;-37
2024/03/28 08:33:29;;;;;;;3.93;2.30;;;7.60;73.60;;;8.88;55.85;95052.81;5031982;28;20037;-37
2024/03/28 08:35:56;;;;;;;3.73;2.30;;;7.60;73.70;;;8.93;55.99;95068.09;5032111;28;20042;-37
2024/03/28 08:38:23;;;;;;;3.00;2.20;;;7.60;73.70;;;8.97;55.95;95085.22;5032227;28;20060;-37
2024/03/28 08:40:49;;;;;;;2.67;1.90;;;7.60;73.80;;;9.00;55.85;95095.41;5032137;28;20042;-37
2024/03/28 08:43:16;;;;;;;3.37;2.60;;;7.70;73.70;;;9.01;56.33;95123.56;5031520;28;20048;-37
2024/03/28 08:45:43;;;;;;;3.03;2.10;;;7.80;73.80;;;8.99;56.20;95139.69;5032496;28;20412;-38
2024/03/28 08:48:09;;;;;;;4.07;2.00;;;7.80;73.60;;;8.98;56.45;95145.22;5031938;28;20551;-37
2024/03/28 08:50:37;;;;;;;3.53;1.60;;;7.70;74.10;;;9.04;56.24;95153.13;5032246;28;20045;-38
2024/03/28 08:53:05;;;;;;;2.43;1.70;;;7.80;74.00;;;9.09;55.73;95155.16;5023625;28;20493;-38
2024/03/28 08:55:32;;;;;;;2.80;1.80;;;7.80;73.00;;;9.13;55.78;95144.94;5031253;28;20510;-37
2024/03/28 08:57:59;;;;;;;3.40;2.17;;;7.90;73.30;;;9.17;55.82;95165.53;5031523;28;20042;-38
2024/03/28 09:00:26;;;;;;;2.27;1.57;;;7.90;73.20;;;9.22;56.08;95164.88;5032133;28;20037;-37
2024/03/28 09:02:53;;;;;;;3.73;2.20;;;7.90;72.80;;;9.25;55.91;95162.63;5031615;28;20046;-37
2024/03/28 09:05:21;;;;;;;4.27;2.27;;;8.00;72.80;;;9.30;55.82;95185.88;5032191;28;20037;-37
2024/03/28 09:07:49;;;;;;;2.60;1.90;;;8.00;72.40;;;9.35;55.45;95169.31;5031502;28;20052;-38
2024/03/28 09:10:16;;;;;;;2.73;1.60;;;8.10;72.30;;;9.35;55.52;95156.84;5031813;28;20056;-37
2024/03/28 09:12:47;;;;;;;4.43;2.70;;;8.10;71.90;;;9.41;55.72;95174.56;5031371;28;20063;-38
2024/03/28 09:15:15;;;;;;;3.90;2.23;;;8.10;72.10;;;9.47;55.35;95183.53;5031590;28;20037;-38
2024/03/28 09:17:41;;;;;;;4.03;1.87;;;8.20;72.10;;;9.50;55.23;95190.25;5015020;28;20608;-37
2024/03/28 09:20:13;;;;;;;3.27;1.90;;;8.20;72.00;;;9.58;55.40;95195.31;5031635;28;20033;-38
2024/03/28 09:22:40;;;;;;;1.07;0.93;;;8.20;72.00;;;9.59;55.23;95199.59;4999272;28;20041;-38
2024/03/28 09:25:08;;;;;;;1.90;1.20;;;8.20;71.40;;;9.56;55.24;95200.84;5023338;28;20515;-38
2024/03/28 09:27:36;;;;;;;1.37;1.00;;;8.20;71.80;;;9.57;55.40;95199.78;5014582;28;20057;-38
2024/03/28 09:30:03;;;;;;;4.07;1.63;;;8.20;72.10;;;9.58;55.21;95217.38;5030848;28;20038;-38
2024/03/28 09:32:30;;;;;;;4.87;4.27;;;8.20;71.40;;;9.57;55.11;95229.03;5030271;28;20440;-38
2024/03/28 09:34:57;;;;;;;8.23;7.30;;;8.20;71.70;;;9.61;54.96;95214.28;5030865;28;20520;-38
2024/03/28 09:37:23;;;;;;;3.23;2.93;;;8.20;71.70;;;9.64;55.00;95221.03;5030653;28;20040;-38
2024/03/28 09:39:51;;;;;;;1.40;1.30;;;8.20;71.90;;;9.70;55.10;95233.44;5030414;28;20037;-38
2024/03/28 09:42:22;;;;;;;1.70;1.20;;;8.30;71.80;;;9.78;55.20;95232.38;5030237;28;20044;-38
2024/03/28 09:44:50;;;;;;;1.03;0.97;;;8.40;71.60;;;9.86;55.01;95224.13;5030762;28;20041;-38
2024/03/28 09:47:19;;;;;;;0.93;0.93;;;8.50;70.90;;;9.87;54.59;95225.78;5030437;28;20068;-38
2024/03/28 09:49:46;;;;;;;1.30;0.60;;;8.50;70.80;;;9.89;54.34;95231.69;5013434;28;20053;-38
2024/03/28 09:52:14;;;;;;;1.73;1.63;;;8.60;70.70;;;9.95;54.79;95241.44;5024310;28;20052;-38
2024/03/28 09:54:43;;;;;;;0.67;0.67;;;8.60;70.70;;;9.99;54.19;95245.28;5025136;28;20045;-38
2024/03/28 09:57:10;;;;;;;0.53;0.50;;;8.60;69.70;;;10.02;54.25;95244.03;5006066;28;20050;-38
2024/03/28 09:59:37;;;;;;;0.60;0.60;;;8.70;69.50;;;9.93;54.03;95243.50;5022548;28;20588;-38
2024/03/28 10:02:19;;;;;;;0.80;0.80;;;8.70;70.40;;;9.99;54.09;95237.31;5022786;28;20041;-38
2024/03/28 10:04:55;;;;;;;1.00;0.60;;;8.70;69.70;;;10.12;53.99;95236.41;5010038;28;20037;-38
2024/03/28 10:07:22;;;;;;;0.57;0.57;;;8.80;68.80;;;10.13;53.29;95235.38;5025677;28;20057;-38
2024/03/28 10:09:53;;;;;;;0.83;0.60;;;8.80;68.00;;;10.21;53.23;95240.41;5025417;28;20413;-38
2024/03/28 10:12:19;;;;;;;1.27;0.67;;;8.90;68.60;;;10.28;53.33;95247.53;5024855;28;20041;-38
2024/03/28 10:14:56;;;;;;;0.70;0.70;;;9.00;68.40;;;10.33;52.79;95242.41;5025870;28;20064;-38
2024/03/28 10:17:26;;;;;;;1.57;1.30;;;9.00;67.10;;;10.27;53.27;95244.03;4992441;28;20066;-38
2024/03/28 10:20:01;;;;;;;1.50;1.40;;;9.00;68.10;;;10.40;53.19;95233.31;5021050;28;20045;-38
2024/03/28 10:22:31;;;;;;;1.80;1.43;;;9.10;68.00;;;10.51;53.17;95238.97;5008402;28;20065;-38
2024/03/28 10:24:58;;;;;;;1.00;0.97;;;9.20;68.50;;;10.59;53.39;95241.34;5024746;28;20041;-38
2024/03/28 10:27:25;;;;;;;0.60;0.60;;;9.30;67.80;;;10.61;52.85;95253.38;5025345;28;20497;-38
2024/03/28 10:29:53;;;;;;;1.30;0.73;;;9.30;66.50;;;10.43;51.36;95259.50;5008812;28;20072;-38
2024/03/28 10:32:23;;;;;;;0.60;0.60;;;9.20;64.30;;;10.52;51.12;95259.22;5024401;28;20408;-38
2024/03/28 10:34:52;;;;;;;0.60;0.60;;;9.20;64.40;;;10.48;49.92;95271.31;5007215;28;20056;-38
2024/03/28 10:37:22;;;;;;;0.80;0.80;;;9.20;61.80;;;10.54;50.45;95254.47;5024336;28;20048;-38
2024/03/28 10:39:49;;;;;;;0.60;0.60;;;9.30;63.00;;;10.52;50.55;95229.94;5024261;28;20049;-39
2024/03/28 10:42:17;;;;;;;1.03;0.60;;;9.30;62.80;;;10.56;50.38;95234.59;5022790;28;20416;-39